Arnett, Oklahoma
Current Conditions -  °F | °C
As of 8:53 AM on Monday 24 Nov 2014 (Local Time) from KGAG Reporting Station
Clear Clear  
Wind Chill: 23°   Ceiling: Unl
Heat Index: 32°   Visibility: 10mi
Dew Point: 22°   Wind: 13mph
Humidity: 66%   Direction: 270°W
Pressure: 29.98"   Gusts: NA
Location:  36.14°N, 99.77°W
Report Text: KGAG 241453Z AUTO 27011KT 10SM CLR 00/M06 A2998 RMK AO2 SLP164 T00001056 53018
Loading
Personal Weather Stations






























Interactive Weather Map New forecast layout! Learn more

10-Day Weather Forecast

Advertisements
Track Severe Weather on mobile